createdAt,value
2019-06-07T00:00:45.038Z,16.50
2019-06-07T00:03:23.896Z,16.50
2019-06-07T00:05:42.259Z,16.50
2019-06-07T00:08:17.216Z,16.40
2019-06-07T00:10:39.301Z,16.40
2019-06-07T00:13:06.977Z,16.50
2019-06-07T00:15:34.733Z,16.40
2019-06-07T00:18:02.372Z,16.40
2019-06-07T00:20:30.049Z,16.40
2019-06-07T00:22:57.732Z,16.40
2019-06-07T00:25:25.441Z,16.30
2019-06-07T00:27:53.118Z,16.30
2019-06-07T00:30:39.517Z,16.30
2019-06-07T00:32:50.455Z,16.30
2019-06-07T00:35:21.006Z,16.30
2019-06-07T00:37:47.517Z,16.30
2019-06-07T00:40:20.926Z,16.30
2019-06-07T00:42:44.944Z,16.30
2019-06-07T00:45:17.766Z,16.30
2019-06-07T00:47:42.356Z,16.30
2019-06-07T00:50:11.152Z,16.20
2019-06-07T00:55:08.823Z,16.30
2019-06-07T00:57:36.488Z,16.30
2019-06-07T01:00:05.889Z,16.30
2019-06-07T01:02:33.528Z,16.20
2019-06-07T01:05:01.197Z,16.20
2019-06-07T01:07:28.847Z,16.20
2019-06-07T01:09:56.595Z,16.20
2019-06-07T01:12:26.857Z,16.20
2019-06-07T01:14:53.681Z,16.20
2019-06-07T01:17:39.863Z,16.20
2019-06-07T01:19:55.314Z,16.20
2019-06-07T01:22:27.510Z,16.20
2019-06-07T01:24:52.766Z,16.20
2019-06-07T01:27:23.723Z,16.10
2019-06-07T01:29:50.576Z,16.10
2019-06-07T01:32:19.337Z,16.10
2019-06-07T01:34:47.631Z,16.00
2019-06-07T01:37:16.863Z,15.90
2019-06-07T01:39:44.675Z,15.90
2019-06-07T01:42:12.707Z,15.80
2019-06-07T01:44:40.409Z,15.80
2019-06-07T01:47:08.051Z,15.80
2019-06-07T01:49:35.788Z,15.80
2019-06-07T01:52:03.575Z,15.80
2019-06-07T01:57:01.013Z,15.70
2019-06-07T01:59:31.665Z,15.70
2019-06-07T02:01:58.081Z,15.60
2019-06-07T02:04:29.383Z,15.60
2019-06-07T02:06:55.165Z,15.60
2019-06-07T02:09:23.570Z,15.50
2019-06-07T02:11:52.196Z,15.50
2019-06-07T02:14:22.312Z,15.40
2019-06-07T02:16:49.584Z,15.30
2019-06-07T02:19:17.255Z,15.20
2019-06-07T02:21:44.906Z,15.10
2019-06-07T02:24:12.548Z,15.10
2019-06-07T02:26:40.258Z,15.10
2019-06-07T02:29:07.892Z,15.20
2019-06-07T02:31:39.083Z,15.20
2019-06-07T02:34:05.208Z,15.10
2019-06-07T02:36:39.146Z,15.10
2019-06-07T02:39:02.327Z,15.00
2019-06-07T02:41:35.463Z,15.00
2019-06-07T02:43:59.699Z,15.00
2019-06-07T02:46:36.237Z,15.00
2019-06-07T02:48:57.077Z,15.00
2019-06-07T02:51:32.251Z,15.00
2019-06-07T02:53:54.424Z,14.90
2019-06-07T02:56:52.507Z,14.90
2019-06-07T02:58:51.499Z,14.90
2019-06-07T03:01:19.147Z,14.80
2019-06-07T03:03:47.162Z,14.80
2019-06-07T03:06:15.182Z,14.70
2019-06-07T03:08:44.727Z,14.70
2019-06-07T03:11:13.815Z,14.60
2019-06-07T03:13:41.570Z,14.60
2019-06-07T03:16:10.873Z,14.60
2019-06-07T03:18:56.355Z,14.60
2019-06-07T03:21:29.124Z,14.60
2019-06-07T03:23:56.852Z,14.50
2019-06-07T03:27:31.828Z,14.50
2019-06-07T03:29:13.327Z,14.40
2019-06-07T03:31:47.080Z,14.40
2019-06-07T03:34:10.729Z,14.40
2019-06-07T03:36:40.037Z,14.40
2019-06-07T03:39:08.207Z,14.30
2019-06-07T03:41:43.767Z,14.30
2019-06-07T03:44:05.419Z,14.40
2019-06-07T03:46:37.529Z,14.30
2019-06-07T03:49:02.779Z,14.30
2019-06-07T03:51:32.207Z,14.40
2019-06-07T03:54:00.232Z,14.30
2019-06-07T03:56:30.302Z,14.40
2019-06-07T03:58:57.283Z,14.40
2019-06-07T04:01:24.974Z,14.40
2019-06-07T04:03:52.707Z,14.40
2019-06-07T04:06:20.382Z,14.40
2019-06-07T04:08:48.111Z,14.40
2019-06-07T04:11:15.784Z,14.40
2019-06-07T04:13:43.501Z,14.50
2019-06-07T04:16:11.604Z,14.50
2019-06-07T04:18:41.882Z,14.50
2019-06-07T04:21:08.924Z,14.60
2019-06-07T04:23:44.713Z,14.60
2019-06-07T04:26:06.036Z,14.60
2019-06-07T04:29:25.957Z,14.70
2019-06-07T04:31:03.284Z,14.70
2019-06-07T04:33:31.250Z,14.70
2019-06-07T04:36:00.872Z,14.80
2019-06-07T04:38:31.982Z,14.80
2019-06-07T04:40:59.664Z,14.90
2019-06-07T04:43:29.915Z,14.90
2019-06-07T04:45:58.171Z,14.90
2019-06-07T04:48:27.345Z,15.00
2019-06-07T04:50:55.694Z,15.00
2019-06-07T04:53:23.337Z,15.10
2019-06-07T04:55:51.020Z,15.10
2019-06-07T04:58:18.670Z,15.20
2019-06-07T05:00:52.427Z,15.30
2019-06-07T05:03:15.720Z,15.40
2019-06-07T05:05:43.936Z,15.50
2019-06-07T05:08:27.404Z,15.50
2019-06-07T05:10:43.665Z,15.50
2019-06-07T05:13:10.541Z,15.60
2019-06-07T05:15:40.268Z,15.70
2019-06-07T05:18:07.583Z,15.80
2019-06-07T05:20:36.100Z,15.80
2019-06-07T05:23:04.704Z,15.80
2019-06-07T05:25:34.070Z,15.80
2019-06-07T05:28:01.934Z,15.80
2019-06-07T05:33:00.552Z,15.80
2019-06-07T05:35:30.652Z,15.80
2019-06-07T05:37:58.483Z,15.80
2019-06-07T05:40:34.926Z,15.90
2019-06-07T05:43:03.608Z,15.90
2019-06-07T05:45:35.030Z,16.00
2019-06-07T05:48:02.804Z,16.10
2019-06-07T05:50:43.226Z,16.10
2019-06-07T05:53:00.107Z,16.20
2019-06-07T05:55:28.129Z,16.30
2019-06-07T05:57:56.096Z,16.30
2019-06-07T06:00:25.275Z,16.40
2019-06-07T06:03:04.844Z,16.40
2019-06-07T06:05:33.893Z,16.50
2019-06-07T06:07:51.857Z,16.50
2019-06-07T06:10:19.539Z,16.60
2019-06-07T06:12:51.685Z,16.70
2019-06-07T06:15:16.655Z,16.70
2019-06-07T06:17:48.049Z,16.80
2019-06-07T06:20:14.129Z,16.80
2019-06-07T06:22:44.801Z,16.90
2019-06-07T06:28:05.954Z,17.20
2019-06-07T06:30:10.850Z,17.30
2019-06-07T06:32:42.867Z,17.30
2019-06-07T06:35:08.180Z,17.40
2019-06-07T06:37:40.352Z,17.50
2019-06-07T06:40:06.171Z,17.50
2019-06-07T06:42:33.854Z,17.50
2019-06-07T06:45:01.696Z,17.60
2019-06-07T06:47:29.411Z,17.60
2019-06-07T06:49:57.087Z,17.70
2019-06-07T06:52:24.815Z,17.80
2019-06-07T06:54:59.950Z,17.80
2019-06-07T06:57:22.200Z,17.90
2019-06-07T06:59:52.549Z,18.00
2019-06-07T07:02:19.336Z,18.10
2019-06-07T07:04:48.724Z,18.20
2019-06-07T07:07:16.689Z,18.20
2019-06-07T07:09:49.410Z,18.30
2019-06-07T07:12:15.105Z,18.30
2019-06-07T07:14:45.583Z,18.40
2019-06-07T07:17:12.426Z,18.50
2019-06-07T07:19:40.072Z,18.60
2019-06-07T07:22:07.763Z,18.60
2019-06-07T07:24:35.410Z,18.70
2019-06-07T07:27:03.101Z,18.70
2019-06-07T07:29:30.743Z,18.80
2019-06-07T07:31:58.465Z,18.80
2019-06-07T07:34:35.305Z,18.90
2019-06-07T07:36:59.728Z,19.00
2019-06-07T07:39:25.034Z,19.00
2019-06-07T07:42:15.330Z,19.10
2019-06-07T07:44:22.145Z,19.20
2019-06-07T07:46:52.769Z,19.10
2019-06-07T07:49:19.227Z,19.20
2019-06-07T07:51:48.890Z,19.20
2019-06-07T07:54:16.584Z,19.20
2019-06-07T07:56:45.341Z,19.20
2019-06-07T07:59:13.494Z,19.20
2019-06-07T08:01:41.187Z,19.30
2019-06-07T08:04:08.953Z,19.40
2019-06-07T08:06:36.660Z,19.50
2019-06-07T08:09:06.081Z,19.50
2019-06-07T08:11:33.801Z,19.60
2019-06-07T08:14:01.431Z,19.70
2019-06-07T08:16:29.157Z,19.70
2019-06-07T08:19:02.673Z,19.70
2019-06-07T08:21:27.142Z,19.80
2019-06-07T08:23:58.441Z,19.80
2019-06-07T08:26:24.808Z,19.90
2019-06-07T08:28:55.876Z,19.90
2019-06-07T08:31:21.865Z,19.90
2019-06-07T08:33:50.202Z,20.00
2019-06-07T08:36:25.194Z,20.00
2019-06-07T08:38:52.269Z,20.10
2019-06-07T08:41:16.892Z,20.20
2019-06-07T08:43:44.533Z,20.20
2019-06-07T08:46:12.551Z,20.20
2019-06-07T08:48:40.187Z,20.30
2019-06-07T08:51:08.748Z,20.40
2019-06-07T08:53:36.648Z,20.50
2019-06-07T08:56:09.829Z,20.50
2019-06-07T08:58:33.944Z,20.50
2019-06-07T09:01:06.404Z,20.60
2019-06-07T09:03:31.024Z,20.70
2019-06-07T09:06:06.123Z,20.70
2019-06-07T09:08:30.770Z,20.70
2019-06-07T09:10:59.438Z,20.80
2019-06-07T09:13:27.180Z,20.80
2019-06-07T09:15:55.979Z,20.90
2019-06-07T09:18:40.724Z,20.90
2019-06-07T09:20:53.705Z,21.10
2019-06-07T09:23:22.757Z,21.10
2019-06-07T09:26:01.343Z,21.10
2019-06-07T09:28:20.845Z,21.10
2019-06-07T09:30:48.883Z,21.10
2019-06-07T09:33:16.569Z,21.20
2019-06-07T09:35:44.457Z,21.30
2019-06-07T09:38:24.082Z,21.30
2019-06-07T09:40:41.661Z,21.30
2019-06-07T09:45:38.714Z,21.30
2019-06-07T09:48:13.430Z,21.40
2019-06-07T09:50:35.781Z,21.40
2019-06-07T09:53:13.952Z,21.50
2019-06-07T09:55:32.935Z,21.60
2019-06-07T09:58:06.913Z,21.60
2019-06-07T10:00:41.561Z,21.70
2019-06-07T10:03:07.894Z,21.70
2019-06-07T10:05:29.056Z,21.80
2019-06-07T10:08:09.730Z,21.90
2019-06-07T10:12:55.860Z,22.00
2019-06-07T10:15:23.503Z,22.00
2019-06-07T10:17:51.508Z,22.00
2019-06-07T10:20:19.459Z,22.00
2019-06-07T10:22:47.135Z,22.10
2019-06-07T10:25:14.843Z,22.20
2019-06-07T10:27:42.562Z,22.30
2019-06-07T10:30:11.009Z,22.30
2019-06-07T10:32:38.679Z,22.30
2019-06-07T10:35:15.299Z,22.30
2019-06-07T10:37:40.043Z,22.40
2019-06-07T10:40:09.099Z,22.50
2019-06-07T10:42:37.440Z,22.60
2019-06-07T10:45:08.028Z,22.60
2019-06-07T10:47:35.962Z,22.60
2019-06-07T10:50:07.937Z,22.60
2019-06-07T10:52:35.904Z,22.70
2019-06-07T10:55:04.627Z,22.70
2019-06-07T10:57:32.343Z,22.80
2019-06-07T11:00:00.012Z,22.90
2019-06-07T11:02:27.960Z,22.90
2019-06-07T11:04:55.681Z,22.90
2019-06-07T11:07:23.366Z,22.90
2019-06-07T11:10:05.730Z,22.90
2019-06-07T11:12:20.450Z,23.00
2019-06-07T11:14:53.980Z,23.10
2019-06-07T11:17:21.958Z,23.20
2019-06-07T11:19:49.920Z,23.30
2019-06-07T11:22:18.569Z,23.40
2019-06-07T11:24:46.307Z,23.50
2019-06-07T11:27:16.228Z,23.50
2019-06-07T11:29:43.348Z,23.60
2019-06-07T11:32:12.537Z,23.70
2019-06-07T11:34:40.290Z,23.70
2019-06-07T11:37:09.411Z,23.80
2019-06-07T11:39:37.708Z,23.90
2019-06-07T11:42:05.799Z,23.90
2019-06-07T11:44:33.999Z,23.80
2019-06-07T11:47:01.942Z,23.90
2019-06-07T11:49:29.929Z,24.10
2019-06-07T11:51:57.648Z,24.10
2019-06-07T11:54:25.283Z,24.10
2019-06-07T11:56:56.160Z,24.10
2019-06-07T11:59:23.857Z,24.10
2019-06-07T12:01:52.897Z,24.30
2019-06-07T12:04:32.381Z,24.40
2019-06-07T12:06:50.001Z,24.40
2019-06-07T12:09:18.758Z,24.40
2019-06-07T12:11:46.586Z,24.40
2019-06-07T12:14:14.788Z,24.40
2019-06-07T12:16:42.736Z,24.40
2019-06-07T12:19:11.838Z,24.40
2019-06-07T12:21:39.778Z,24.40
2019-06-07T12:24:07.888Z,24.50
2019-06-07T12:26:36.164Z,24.50
2019-06-07T12:29:04.494Z,24.60
2019-06-07T12:31:32.144Z,24.70
2019-06-07T12:33:59.829Z,24.70
2019-06-07T12:36:27.505Z,24.80
2019-06-07T12:39:00.307Z,24.90
2019-06-07T12:41:26.195Z,24.90
2019-06-07T12:43:53.948Z,24.90
2019-06-07T12:46:27.961Z,24.90
2019-06-07T12:48:51.009Z,24.90
2019-06-07T12:51:19.416Z,25.00
2019-06-07T12:53:47.220Z,25.00
2019-06-07T12:56:15.652Z,25.10
2019-06-07T12:58:43.336Z,25.10
2019-06-07T13:01:10.985Z,25.10
2019-06-07T13:03:40.357Z,25.10
2019-06-07T13:06:08.055Z,25.20
2019-06-07T13:11:32.642Z,25.20
2019-06-07T13:14:00.362Z,25.30
2019-06-07T13:16:28.537Z,25.30
2019-06-07T13:18:57.109Z,25.40
2019-06-07T13:21:24.798Z,25.40
2019-06-07T13:23:52.815Z,25.40
2019-06-07T13:26:20.805Z,25.50
2019-06-07T13:28:48.570Z,25.60
2019-06-07T13:31:16.550Z,25.60
2019-06-07T13:33:44.430Z,25.70
2019-06-07T13:36:12.099Z,25.70
2019-06-07T13:38:41.092Z,25.70
2019-06-07T13:41:09.700Z,25.60
2019-06-07T13:43:37.418Z,25.70
2019-06-07T13:46:05.152Z,25.70
2019-06-07T13:48:32.803Z,25.70
2019-06-07T13:51:00.889Z,25.80
2019-06-07T13:53:29.126Z,25.90
2019-06-07T13:55:56.924Z,25.90
2019-06-07T13:58:24.564Z,25.90
2019-06-07T14:00:58.409Z,26.00
2019-06-07T14:03:29.297Z,26.10
2019-06-07T14:05:57.905Z,26.10
2019-06-07T14:08:25.633Z,26.20
2019-06-07T14:10:53.442Z,26.10
2019-06-07T14:13:21.571Z,26.20
2019-06-07T14:16:04.286Z,26.10
2019-06-07T14:18:31.988Z,26.10
2019-06-07T14:20:59.976Z,26.20
2019-06-07T14:23:42.379Z,26.20
2019-06-07T14:25:57.023Z,26.20
2019-06-07T14:28:28.517Z,26.20
2019-06-07T14:30:54.385Z,26.20
2019-06-07T14:33:25.210Z,26.30
2019-06-07T14:35:52.037Z,26.30
2019-06-07T14:38:19.772Z,26.30
2019-06-07T14:40:47.448Z,26.30
2019-06-07T14:43:15.433Z,26.30
2019-06-07T14:45:43.463Z,26.30
2019-06-07T14:48:11.149Z,26.40
2019-06-07T14:50:38.839Z,26.50
2019-06-07T14:53:06.897Z,26.50
2019-06-07T14:55:35.078Z,26.40
2019-06-07T14:58:02.912Z,26.50
2019-06-07T15:00:38.886Z,26.40
2019-06-07T15:03:06.886Z,26.50
2019-06-07T15:05:35.674Z,26.50
2019-06-07T15:08:03.437Z,26.50
2019-06-07T15:10:32.319Z,26.50
2019-06-07T15:13:00.547Z,26.50
2019-06-07T15:15:28.353Z,26.50
2019-06-07T15:17:56.426Z,26.50
2019-06-07T15:20:24.460Z,26.50
2019-06-07T15:22:52.116Z,26.60
2019-06-07T15:25:20.413Z,26.60
2019-06-07T15:27:48.157Z,26.60
2019-06-07T15:30:16.136Z,26.60
2019-06-07T15:32:43.823Z,26.70
2019-06-07T15:35:11.774Z,26.70
2019-06-07T15:37:39.576Z,26.70
2019-06-07T15:40:08.056Z,26.70
2019-06-07T15:42:47.620Z,26.80
2019-06-07T15:45:06.731Z,26.90
2019-06-07T15:47:35.786Z,26.90
2019-06-07T15:50:07.675Z,27.00
2019-06-07T15:52:35.527Z,26.90
2019-06-07T15:55:05.086Z,26.90
2019-06-07T15:57:33.352Z,26.80
2019-06-07T16:00:01.399Z,26.80
2019-06-07T16:02:29.507Z,26.80
2019-06-07T16:04:57.233Z,26.80
2019-06-07T16:07:24.923Z,26.80
2019-06-07T16:09:52.581Z,26.70
2019-06-07T16:12:20.295Z,26.70
2019-06-07T16:14:47.952Z,26.70
2019-06-07T16:17:15.980Z,26.70
2019-06-07T16:19:46.548Z,26.70
2019-06-07T16:22:21.386Z,26.70
2019-06-07T16:24:49.411Z,26.70
2019-06-07T16:27:17.203Z,26.80
2019-06-07T16:29:44.891Z,26.80
2019-06-07T16:32:12.652Z,26.70
2019-06-07T16:34:41.814Z,26.70
2019-06-07T16:37:09.736Z,26.70
2019-06-07T16:39:38.096Z,26.70
2019-06-07T16:42:05.875Z,26.70
2019-06-07T16:44:33.555Z,26.60
2019-06-07T16:47:01.275Z,26.70
2019-06-07T16:49:28.913Z,26.70
2019-06-07T16:51:56.600Z,26.60
2019-06-07T16:54:24.273Z,26.70
2019-06-07T16:56:51.981Z,26.80
2019-06-07T16:59:19.634Z,26.80
2019-06-07T17:01:47.393Z,26.70
2019-06-07T17:04:15.052Z,26.70
2019-06-07T17:06:43.702Z,26.60
2019-06-07T17:09:12.032Z,26.60
2019-06-07T17:11:40.418Z,26.60
2019-06-07T17:14:08.599Z,26.60
2019-06-07T17:16:36.292Z,26.60
2019-06-07T17:19:04.188Z,26.60
2019-06-07T17:21:31.867Z,26.50
2019-06-07T17:23:59.587Z,26.50
2019-06-07T17:26:27.244Z,26.50
2019-06-07T17:28:54.927Z,26.50
2019-06-07T17:31:22.615Z,26.70
2019-06-07T17:33:50.442Z,26.70
2019-06-07T17:36:18.178Z,26.60
2019-06-07T17:38:46.529Z,26.50
2019-06-07T17:41:15.003Z,26.50
2019-06-07T17:43:52.073Z,26.50
2019-06-07T17:46:13.704Z,26.50
2019-06-07T17:48:41.534Z,26.50
2019-06-07T17:51:09.225Z,26.60
2019-06-07T17:53:38.120Z,26.50
2019-06-07T17:56:06.052Z,26.50
2019-06-07T17:58:33.768Z,26.50
2019-06-07T18:01:01.415Z,26.60
2019-06-07T18:03:29.140Z,26.70
2019-06-07T18:05:57.791Z,26.70
2019-06-07T18:08:25.657Z,26.80
2019-06-07T18:10:54.190Z,27.00
2019-06-07T18:13:22.444Z,27.00
2019-06-07T18:15:54.980Z,26.80
2019-06-07T18:18:20.506Z,26.60
2019-06-07T18:20:49.273Z,26.50
2019-06-07T18:23:17.036Z,26.40
2019-06-07T18:25:46.343Z,26.30
2019-06-07T18:28:14.285Z,26.30
2019-06-07T18:30:41.998Z,26.10
2019-06-07T18:33:09.680Z,25.90
2019-06-07T18:35:37.338Z,25.80
2019-06-07T18:38:05.058Z,25.80
2019-06-07T18:40:34.120Z,25.70
2019-06-07T18:43:01.832Z,25.40
2019-06-07T18:45:29.533Z,25.10
2019-06-07T18:47:57.798Z,24.90
2019-06-07T18:50:25.586Z,24.70
2019-06-07T18:52:53.271Z,24.60
2019-06-07T18:55:20.915Z,24.40
2019-06-07T18:57:50.084Z,24.40
2019-06-07T19:00:19.388Z,24.20
2019-06-07T19:02:47.693Z,24.20
2019-06-07T19:05:15.563Z,24.10
2019-06-07T19:07:43.272Z,23.90
2019-06-07T19:10:11.688Z,23.80
2019-06-07T19:12:39.431Z,23.80
2019-06-07T19:15:07.539Z,23.70
2019-06-07T19:17:35.283Z,23.50
2019-06-07T19:20:04.433Z,23.50
2019-06-07T19:22:32.150Z,23.40
2019-06-07T19:25:00.522Z,23.30
2019-06-07T19:27:28.373Z,23.30
2019-06-07T19:29:56.779Z,23.20
2019-06-07T19:32:24.571Z,23.20
2019-06-07T19:34:53.203Z,23.10
2019-06-07T19:37:21.048Z,23.00
2019-06-07T19:39:48.748Z,23.00
2019-06-07T19:42:16.426Z,22.90
2019-06-07T19:44:53.109Z,22.80
2019-06-07T19:47:13.884Z,22.80
2019-06-07T19:49:41.572Z,22.70
2019-06-07T19:52:09.517Z,22.70
2019-06-07T19:54:37.206Z,22.70
2019-06-07T19:57:04.887Z,22.70
2019-06-07T19:59:32.576Z,22.60
2019-06-07T20:02:00.223Z,22.50
2019-06-07T20:04:27.908Z,22.50
2019-06-07T20:06:56.225Z,22.50
2019-06-07T20:09:24.397Z,22.40
2019-06-07T20:11:52.044Z,22.30
2019-06-07T20:14:19.740Z,22.30
2019-06-07T20:16:47.714Z,22.30
2019-06-07T20:19:15.397Z,22.20
2019-06-07T20:21:43.044Z,22.10
2019-06-07T20:24:26.274Z,22.10
2019-06-07T20:26:41.397Z,22.00
2019-06-07T20:29:24.816Z,22.00
2019-06-07T20:31:38.488Z,21.90
2019-06-07T20:34:06.449Z,22.00
2019-06-07T20:36:34.101Z,21.90
2019-06-07T20:39:02.207Z,21.80
2019-06-07T20:41:29.980Z,21.70
2019-06-07T20:43:57.747Z,21.70
2019-06-07T20:46:25.375Z,21.70
2019-06-07T20:48:53.106Z,21.60
2019-06-07T20:51:23.809Z,21.60
2019-06-07T20:53:54.902Z,21.60
2019-06-07T20:56:24.587Z,21.50
2019-06-07T20:58:51.973Z,21.50
2019-06-07T21:01:19.611Z,21.40
2019-06-07T21:03:47.638Z,21.40
2019-06-07T21:06:15.281Z,21.30
2019-06-07T21:08:42.997Z,21.30
2019-06-07T21:11:10.637Z,21.20
2019-06-07T21:13:38.316Z,21.20
2019-06-07T21:16:06.142Z,21.10
2019-06-07T21:18:33.919Z,21.10
2019-06-07T21:21:02.340Z,21.10
2019-06-07T21:23:30.128Z,21.00
2019-06-07T21:25:57.810Z,21.00
2019-06-07T21:28:25.877Z,21.00
2019-06-07T21:30:53.529Z,21.00
2019-06-07T21:33:21.508Z,20.90
2019-06-07T21:35:49.156Z,20.90
2019-06-07T21:38:16.859Z,20.80
2019-06-07T21:40:44.879Z,20.80
2019-06-07T21:43:12.886Z,20.70
2019-06-07T21:45:40.814Z,20.50
2019-06-07T21:48:08.906Z,20.50
2019-06-07T21:50:37.060Z,20.40
2019-06-07T21:53:04.864Z,20.40
2019-06-07T21:55:32.558Z,20.40
2019-06-07T21:58:00.327Z,20.30
2019-06-07T22:00:48.326Z,20.20
2019-06-07T22:03:16.027Z,20.10
2019-06-07T22:05:43.716Z,19.90
2019-06-07T22:08:12.325Z,20.00
2019-06-07T22:10:40.146Z,20.10
2019-06-07T22:13:08.064Z,20.10
2019-06-07T22:15:37.505Z,20.10
2019-06-07T22:18:06.963Z,20.00
2019-06-07T22:20:34.798Z,20.00
2019-06-07T22:23:02.800Z,19.90
2019-06-07T22:25:30.772Z,19.90
2019-06-07T22:27:58.535Z,20.10
2019-06-07T22:30:26.418Z,20.40
2019-06-07T22:32:54.095Z,20.70
2019-06-07T22:35:21.773Z,21.00
2019-06-07T22:37:49.451Z,21.40
2019-06-07T22:40:17.126Z,21.50
2019-06-07T22:42:44.798Z,21.60
2019-06-07T22:45:12.511Z,21.60
2019-06-07T22:47:40.692Z,21.90
2019-06-07T22:50:10.442Z,22.10
2019-06-07T22:52:38.499Z,22.20
2019-06-07T22:55:07.773Z,22.30
2019-06-07T22:57:53.688Z,22.20
2019-06-07T23:00:21.336Z,22.20
2019-06-07T23:02:49.037Z,22.30
2019-06-07T23:05:17.046Z,22.30
2019-06-07T23:07:44.727Z,22.20
2019-06-07T23:10:13.338Z,22.00
2019-06-07T23:12:41.065Z,21.70
2019-06-07T23:15:09.373Z,21.40
2019-06-07T23:17:37.078Z,21.00
2019-06-07T23:20:06.327Z,20.70
2019-06-07T23:22:34.084Z,20.50
2019-06-07T23:25:01.771Z,20.20
2019-06-07T23:27:29.412Z,20.00
2019-06-07T23:29:57.481Z,19.80
2019-06-07T23:32:25.511Z,19.60
2019-06-07T23:34:53.476Z,19.60
2019-06-07T23:37:21.347Z,19.40
2019-06-07T23:39:49.144Z,19.30
2019-06-07T23:42:17.575Z,19.30
2019-06-07T23:44:45.484Z,19.20
2019-06-07T23:47:15.425Z,18.90
2019-06-07T23:49:42.634Z,18.90
2019-06-07T23:52:11.566Z,18.80
2019-06-07T23:54:39.710Z,18.80
2019-06-07T23:57:07.611Z,18.60
2019-06-07T23:59:35.561Z,18.50
